Pontoon Beach, Illinois
Current Conditions -  °F | °C
As of 10:15 PM on Sunday 21 Dec 2014 (Local Time) from KALN Reporting Station
Overcast Overcast  
Wind Chill: 35°   Ceiling: 4200
Heat Index: 40°   Visibility: 10mi
Dew Point: 32°   Wind: 7mph
Humidity: 73%   Direction: 110°ESE
Pressure: 29.97"   Gusts: NA
Location:  38.7259°N, 90.0982°W
Report Text: KALN 220415Z AUTO 11006KT 10SM BKN042 OVC055 05/00 A2997 RMK AO2 T00450000
Loading
Personal Weather Stations






























Interactive Weather Map New forecast layout! Learn more

10-Day Weather Forecast

Advertisements
Track Severe Weather on mobile